Landrienne, Canada
Current Conditions -  °F | °C
As of 11:00 AM on Saturday 22 Nov 2014 (Local Time) from CYVO Reporting Station
Light Snow Light Snow  
Wind Chill: 20°   Ceiling: 1200
Heat Index: 30°   Visibility: 10mi
Dew Point: 28°   Wind: 14mph
Humidity: 93%   Direction: 220°SW
Pressure: 29.67"   Gusts: 23mph
Location:  48.55°N, 77.95°W
Report Text: CYVO 221600Z 22012G20KT 10SM -SN OVC012 M01/M02 A2967 RMK SC8 SLP070
Loading
Personal Weather Stations






























Interactive Weather Map New forecast layout! Learn more

10-Day Weather Forecast

Advertisements
Track Severe Weather on mobile